sensor_id;sensor_type;location;lat;lon;timestamp;temperature;humidity
26254;DHT22;53339;51.378;0.094;2022-11-04T00:01:45;8.50;93.70
26254;DHT22;53339;51.378;0.094;2022-11-04T00:04:14;8.60;93.70
26254;DHT22;53339;51.378;0.094;2022-11-04T00:06:42;8.60;93.70
26254;DHT22;53339;51.378;0.094;2022-11-04T00:09:12;8.50;93.60
26254;DHT22;53339;51.378;0.094;2022-11-04T00:11:39;8.50;93.60
26254;DHT22;53339;51.378;0.094;2022-11-04T00:14:27;8.60;93.70
26254;DHT22;53339;51.378;0.094;2022-11-04T00:16:56;8.60;93.70
26254;DHT22;53339;51.378;0.094;2022-11-04T00:19:42;8.50;93.60
26254;DHT22;53339;51.378;0.094;2022-11-04T00:22:28;8.50;93.70
26254;DHT22;53339;51.378;0.094;2022-11-04T00:25:15;8.60;93.70
26254;DHT22;53339;51.378;0.094;2022-11-04T00:28:15;8.50;93.60
26254;DHT22;53339;51.378;0.094;2022-11-04T00:31:03;8.40;93.60
26254;DHT22;53339;51.378;0.094;2022-11-04T00:33:51;8.50;93.70
26254;DHT22;53339;51.378;0.094;2022-11-04T00:36:20;8.50;93.70
26254;DHT22;53339;51.378;0.094;2022-11-04T00:38:49;8.40;93.60
26254;DHT22;53339;51.378;0.094;2022-11-04T00:41:17;8.40;93.60
26254;DHT22;53339;51.378;0.094;2022-11-04T00:44:02;8.40;93.70
26254;DHT22;53339;51.378;0.094;2022-11-04T00:46:30;8.50;93.70
26254;DHT22;53339;51.378;0.094;2022-11-04T00:48:59;8.40;93.70
26254;DHT22;53339;51.378;0.094;2022-11-04T00:51:26;8.40;93.70
26254;DHT22;53339;51.378;0.094;2022-11-04T00:53:54;8.50;93.80
26254;DHT22;53339;51.378;0.094;2022-11-04T00:56:24;8.50;93.70
26254;DHT22;53339;51.378;0.094;2022-11-04T00:58:52;8.40;93.60
26254;DHT22;53339;51.378;0.094;2022-11-04T01:01:19;8.30;93.50
26254;DHT22;53339;51.378;0.094;2022-11-04T01:03:49;8.20;93.40
26254;DHT22;53339;51.378;0.094;2022-11-04T01:06:18;8.10;93.40
26254;DHT22;53339;51.378;0.094;2022-11-04T01:08:46;8.10;93.50
26254;DHT22;53339;51.378;0.094;2022-11-04T01:11:14;8.30;93.70
26254;DHT22;53339;51.378;0.094;2022-11-04T01:13:43;8.40;93.80
26254;DHT22;53339;51.378;0.094;2022-11-04T01:16:11;8.40;93.70
26254;DHT22;53339;51.378;0.094;2022-11-04T01:18:40;8.40;93.70
26254;DHT22;53339;51.378;0.094;2022-11-04T01:21:10;8.30;93.60
26254;DHT22;53339;51.378;0.094;2022-11-04T01:23:40;8.30;93.70
26254;DHT22;53339;51.378;0.094;2022-11-04T01:26:11;8.30;93.70
26254;DHT22;53339;51.378;0.094;2022-11-04T01:28:39;8.40;93.70
26254;DHT22;53339;51.378;0.094;2022-11-04T01:31:08;8.40;93.80
26254;DHT22;53339;51.378;0.094;2022-11-04T01:33:36;8.40;93.80
26254;DHT22;53339;51.378;0.094;2022-11-04T01:36:05;8.40;93.80
26254;DHT22;53339;51.378;0.094;2022-11-04T01:38:33;8.40;93.70
26254;DHT22;53339;51.378;0.094;2022-11-04T01:41:02;8.40;93.80
26254;DHT22;53339;51.378;0.094;2022-11-04T01:44:44;8.50;93.90
26254;DHT22;53339;51.378;0.094;2022-11-04T01:46:43;8.50;93.80
26254;DHT22;53339;51.378;0.094;2022-11-04T01:52:04;8.40;93.70
26254;DHT22;53339;51.378;0.094;2022-11-04T01:54:33;8.50;93.80
26254;DHT22;53339;51.378;0.094;2022-11-04T01:57:04;8.40;93.70
26254;DHT22;53339;51.378;0.094;2022-11-04T01:59:38;8.30;93.60
26254;DHT22;53339;51.378;0.094;2022-11-04T02:02:07;8.40;93.70
26254;DHT22;53339;51.378;0.094;2022-11-04T02:04:36;8.40;93.80
26254;DHT22;53339;51.378;0.094;2022-11-04T02:07:07;8.40;93.70
26254;DHT22;53339;51.378;0.094;2022-11-04T02:09:37;8.30;93.70
26254;DHT22;53339;51.378;0.094;2022-11-04T02:12:06;8.40;93.80
26254;DHT22;53339;51.378;0.094;2022-11-04T02:14:53;8.40;93.70
26254;DHT22;53339;51.378;0.094;2022-11-04T02:20:36;8.30;93.60
26254;DHT22;53339;51.378;0.094;2022-11-04T02:35:05;8.50;93.70
26254;DHT22;53339;51.378;0.094;2022-11-04T02:37:50;8.40;93.60
26254;DHT22;53339;51.378;0.094;2022-11-04T02:43:56;8.40;93.60
26254;DHT22;53339;51.378;0.094;2022-11-04T02:49:16;8.30;93.60
26254;DHT22;53339;51.378;0.094;2022-11-04T02:51:55;8.40;93.60
26254;DHT22;53339;51.378;0.094;2022-11-04T02:54:30;8.40;93.70
26254;DHT22;53339;51.378;0.094;2022-11-04T02:57:01;8.50;93.70
26254;DHT22;53339;51.378;0.094;2022-11-04T02:59:36;8.40;93.70
26254;DHT22;53339;51.378;0.094;2022-11-04T03:02:07;8.50;93.70
26254;DHT22;53339;51.378;0.094;2022-11-04T03:04:40;8.60;93.80
26254;DHT22;53339;51.378;0.094;2022-11-04T03:07:11;8.60;93.70
26254;DHT22;53339;51.378;0.094;2022-11-04T03:09:45;8.50;93.70
26254;DHT22;53339;51.378;0.094;2022-11-04T03:12:18;8.50;93.70
26254;DHT22;53339;51.378;0.094;2022-11-04T03:14:51;8.60;93.80
26254;DHT22;53339;51.378;0.094;2022-11-04T03:20:12;8.50;93.70
26254;DHT22;53339;51.378;0.094;2022-11-04T03:22:43;8.50;93.70
26254;DHT22;53339;51.378;0.094;2022-11-04T03:25:10;8.60;93.70
26254;DHT22;53339;51.378;0.094;2022-11-04T03:27:46;8.50;93.60
26254;DHT22;53339;51.378;0.094;2022-11-04T03:30:19;8.40;93.60
26254;DHT22;53339;51.378;0.094;2022-11-04T03:35:42;8.50;93.70
26254;DHT22;53339;51.378;0.094;2022-11-04T03:38:10;8.40;93.60
26254;DHT22;53339;51.378;0.094;2022-11-04T03:40:38;8.40;93.60
26254;DHT22;53339;51.378;0.094;2022-11-04T03:43:15;8.40;93.60
26254;DHT22;53339;51.378;0.094;2022-11-04T03:45:44;8.40;93.60
26254;DHT22;53339;51.378;0.094;2022-11-04T03:48:12;8.40;93.60
26254;DHT22;53339;51.378;0.094;2022-11-04T03:50:42;8.30;93.60
26254;DHT22;53339;51.378;0.094;2022-11-04T03:53:12;8.30;93.60
26254;DHT22;53339;51.378;0.094;2022-11-04T04:03:59;8.10;93.50
26254;DHT22;53339;51.378;0.094;2022-11-04T04:06:32;8.10;93.50
26254;DHT22;53339;51.378;0.094;2022-11-04T04:09:20;8.00;93.40
26254;DHT22;53339;51.378;0.094;2022-11-04T04:11:57;8.00;93.50
26254;DHT22;53339;51.378;0.094;2022-11-04T04:14:33;8.00;93.40
26254;DHT22;53339;51.378;0.094;2022-11-04T04:20:05;7.90;93.40
26254;DHT22;53339;51.378;0.094;2022-11-04T04:22:45;7.90;93.50
26254;DHT22;53339;51.378;0.094;2022-11-04T04:25:14;7.90;93.50
26254;DHT22;53339;51.378;0.094;2022-11-04T04:28:03;7.80;93.40
26254;DHT22;53339;51.378;0.094;2022-11-04T04:30:31;7.80;93.40
26254;DHT22;53339;51.378;0.094;2022-11-04T04:33:04;7.80;93.50
26254;DHT22;53339;51.378;0.094;2022-11-04T04:35:38;7.90;93.50
26254;DHT22;53339;51.378;0.094;2022-11-04T04:41:07;7.80;93.40
26254;DHT22;53339;51.378;0.094;2022-11-04T04:43:54;7.80;93.50
26254;DHT22;53339;51.378;0.094;2022-11-04T04:46:43;7.80;93.50
26254;DHT22;53339;51.378;0.094;2022-11-04T04:49:11;7.80;93.40
26254;DHT22;53339;51.378;0.094;2022-11-04T04:51:43;7.80;93.40
26254;DHT22;53339;51.378;0.094;2022-11-04T04:54:11;7.80;93.50
26254;DHT22;53339;51.378;0.094;2022-11-04T04:56:39;7.70;93.40
26254;DHT22;53339;51.378;0.094;2022-11-04T04:59:06;7.70;93.30
26254;DHT22;53339;51.378;0.094;2022-11-04T05:01:34;7.70;93.40
26254;DHT22;53339;51.378;0.094;2022-11-04T05:04:02;7.70;93.40
26254;DHT22;53339;51.378;0.094;2022-11-04T05:06:29;7.70;93.40
26254;DHT22;53339;51.378;0.094;2022-11-04T05:08:57;7.60;93.30
26254;DHT22;53339;51.378;0.094;2022-11-04T05:11:24;7.60;93.30
26254;DHT22;53339;51.378;0.094;2022-11-04T05:13:53;7.70;93.40
26254;DHT22;53339;51.378;0.094;2022-11-04T05:16:21;7.70;93.30
26254;DHT22;53339;51.378;0.094;2022-11-04T05:18:50;7.50;93.20
26254;DHT22;53339;51.378;0.094;2022-11-04T05:21:18;7.60;93.30
26254;DHT22;53339;51.378;0.094;2022-11-04T05:23:46;7.60;93.30
26254;DHT22;53339;51.378;0.094;2022-11-04T05:26:13;7.50;93.30
26254;DHT22;53339;51.378;0.094;2022-11-04T05:28:41;7.40;93.20
26254;DHT22;53339;51.378;0.094;2022-11-04T05:31:08;7.40;93.20
26254;DHT22;53339;51.378;0.094;2022-11-04T05:33:36;7.40;93.30
26254;DHT22;53339;51.378;0.094;2022-11-04T05:36:14;7.40;93.20
26254;DHT22;53339;51.378;0.094;2022-11-04T05:38:42;7.30;93.20
26254;DHT22;53339;51.378;0.094;2022-11-04T05:41:11;7.30;93.20
26254;DHT22;53339;51.378;0.094;2022-11-04T05:43:52;7.30;93.30
26254;DHT22;53339;51.378;0.094;2022-11-04T05:46:21;7.30;93.30
26254;DHT22;53339;51.378;0.094;2022-11-04T05:48:48;7.20;93.20
26254;DHT22;53339;51.378;0.094;2022-11-04T05:51:18;7.20;93.20
26254;DHT22;53339;51.378;0.094;2022-11-04T05:53:46;7.30;93.30
26254;DHT22;53339;51.378;0.094;2022-11-04T05:56:14;7.20;93.20
26254;DHT22;53339;51.378;0.094;2022-11-04T05:58:41;7.10;93.10
26254;DHT22;53339;51.378;0.094;2022-11-04T06:01:22;7.10;93.10
26254;DHT22;53339;51.378;0.094;2022-11-04T06:03:51;7.20;93.20
26254;DHT22;53339;51.378;0.094;2022-11-04T06:06:20;7.20;93.20
26254;DHT22;53339;51.378;0.094;2022-11-04T06:08:48;7.00;93.10
26254;DHT22;53339;51.378;0.094;2022-11-04T06:11:17;7.00;93.20
26254;DHT22;53339;51.378;0.094;2022-11-04T06:13:44;7.10;93.20
26254;DHT22;53339;51.378;0.094;2022-11-04T06:16:12;7.10;93.20
26254;DHT22;53339;51.378;0.094;2022-11-04T06:18:40;7.00;93.10
26254;DHT22;53339;51.378;0.094;2022-11-04T06:23:41;7.00;93.10
26254;DHT22;53339;51.378;0.094;2022-11-04T06:26:11;7.00;93.20
26254;DHT22;53339;51.378;0.094;2022-11-04T06:28:38;6.90;93.10
26254;DHT22;53339;51.378;0.094;2022-11-04T06:31:08;6.90;93.10
26254;DHT22;53339;51.378;0.094;2022-11-04T06:33:36;6.90;93.10
26254;DHT22;53339;51.378;0.094;2022-11-04T06:36:06;6.90;93.10
26254;DHT22;53339;51.378;0.094;2022-11-04T06:38:35;6.90;93.10
26254;DHT22;53339;51.378;0.094;2022-11-04T06:41:05;6.80;93.10
26254;DHT22;53339;51.378;0.094;2022-11-04T06:43:33;6.80;93.10
26254;DHT22;53339;51.378;0.094;2022-11-04T06:46:02;6.90;93.20
26254;DHT22;53339;51.378;0.094;2022-11-04T06:48:30;6.80;93.10
26254;DHT22;53339;51.378;0.094;2022-11-04T06:50:58;6.70;93.10
26254;DHT22;53339;51.378;0.094;2022-11-04T06:53:26;6.80;93.10
26254;DHT22;53339;51.378;0.094;2022-11-04T06:56:01;6.70;93.10
26254;DHT22;53339;51.378;0.094;2022-11-04T06:58:30;6.60;92.90
26254;DHT22;53339;51.378;0.094;2022-11-04T07:00:57;6.60;92.90
26254;DHT22;53339;51.378;0.094;2022-11-04T07:03:25;6.60;93.00
26254;DHT22;53339;51.378;0.094;2022-11-04T07:05:52;6.60;93.00
26254;DHT22;53339;51.378;0.094;2022-11-04T07:08:20;6.50;93.00
26254;DHT22;53339;51.378;0.094;2022-11-04T07:10:47;6.40;93.00
26254;DHT22;53339;51.378;0.094;2022-11-04T07:13:15;6.50;93.00
26254;DHT22;53339;51.378;0.094;2022-11-04T07:15:43;6.50;93.10
26254;DHT22;53339;51.378;0.094;2022-11-04T07:18:11;6.40;92.90
26254;DHT22;53339;51.378;0.094;2022-11-04T07:20:38;6.40;92.90
26254;DHT22;53339;51.378;0.094;2022-11-04T07:23:06;6.40;93.00
26254;DHT22;53339;51.378;0.094;2022-11-04T07:25:34;6.50;93.20
26254;DHT22;53339;51.378;0.094;2022-11-04T07:28:02;6.50;93.20
26254;DHT22;53339;51.378;0.094;2022-11-04T07:30:29;6.60;93.20
26254;DHT22;53339;51.378;0.094;2022-11-04T07:32:57;6.60;93.30
26254;DHT22;53339;51.378;0.094;2022-11-04T07:35:24;6.60;93.20
26254;DHT22;53339;51.378;0.094;2022-11-04T07:37:54;6.50;93.10
26254;DHT22;53339;51.378;0.094;2022-11-04T07:40:21;6.40;93.00
26254;DHT22;53339;51.378;0.094;2022-11-04T07:42:48;6.40;93.10
26254;DHT22;53339;51.378;0.094;2022-11-04T07:45:17;6.40;93.10
26254;DHT22;53339;51.378;0.094;2022-11-04T07:47:45;6.30;93.00
26254;DHT22;53339;51.378;0.094;2022-11-04T07:50:12;6.20;93.00
26254;DHT22;53339;51.378;0.094;2022-11-04T07:52:40;6.20;93.00
26254;DHT22;53339;51.378;0.094;2022-11-04T07:55:07;6.40;93.20
26254;DHT22;53339;51.378;0.094;2022-11-04T07:57:36;6.30;93.10
26254;DHT22;53339;51.378;0.094;2022-11-04T08:00:04;6.10;92.90
26254;DHT22;53339;51.378;0.094;2022-11-04T08:02:38;6.00;92.80
26254;DHT22;53339;51.378;0.094;2022-11-04T08:05:06;5.90;92.80
26254;DHT22;53339;51.378;0.094;2022-11-04T08:07:34;5.80;92.70
26254;DHT22;53339;51.378;0.094;2022-11-04T08:10:01;5.80;92.80
26254;DHT22;53339;51.378;0.094;2022-11-04T08:12:29;5.70;92.80
26254;DHT22;53339;51.378;0.094;2022-11-04T08:14:58;5.70;92.80
26254;DHT22;53339;51.378;0.094;2022-11-04T08:17:26;5.70;92.90
26254;DHT22;53339;51.378;0.094;2022-11-04T08:19:53;5.70;93.00
26254;DHT22;53339;51.378;0.094;2022-11-04T08:22:21;5.80;93.10
26254;DHT22;53339;51.378;0.094;2022-11-04T08:24:48;5.90;93.20
26254;DHT22;53339;51.378;0.094;2022-11-04T08:27:16;6.00;93.20
26254;DHT22;53339;51.378;0.094;2022-11-04T08:29:43;6.10;93.30
26254;DHT22;53339;51.378;0.094;2022-11-04T08:32:11;6.10;93.40
26254;DHT22;53339;51.378;0.094;2022-11-04T08:34:38;6.20;93.40
26254;DHT22;53339;51.378;0.094;2022-11-04T08:37:06;6.30;93.40
26254;DHT22;53339;51.378;0.094;2022-11-04T08:39:34;6.30;93.30
26254;DHT22;53339;51.378;0.094;2022-11-04T08:42:01;6.20;93.30
26254;DHT22;53339;51.378;0.094;2022-11-04T08:44:29;6.30;93.40
26254;DHT22;53339;51.378;0.094;2022-11-04T08:46:57;6.40;93.40
26254;DHT22;53339;51.378;0.094;2022-11-04T08:49:24;6.50;93.50
26254;DHT22;53339;51.378;0.094;2022-11-04T08:51:52;6.60;93.50
26254;DHT22;53339;51.378;0.094;2022-11-04T08:54:26;6.70;93.60
26254;DHT22;53339;51.378;0.094;2022-11-04T08:56:54;6.80;93.60
26254;DHT22;53339;51.378;0.094;2022-11-04T08:59:22;6.80;93.60
26254;DHT22;53339;51.378;0.094;2022-11-04T09:01:51;6.90;93.60
26254;DHT22;53339;51.378;0.094;2022-11-04T09:04:18;6.90;93.60
26254;DHT22;53339;51.378;0.094;2022-11-04T09:06:46;7.00;93.60
26254;DHT22;53339;51.378;0.094;2022-11-04T09:09:15;7.00;93.60
26254;DHT22;53339;51.378;0.094;2022-11-04T09:11:43;7.10;93.70
26254;DHT22;53339;51.378;0.094;2022-11-04T09:14:11;7.10;93.70
26254;DHT22;53339;51.378;0.094;2022-11-04T09:16:40;7.20;93.60
26254;DHT22;53339;51.378;0.094;2022-11-04T09:19:08;7.20;93.60
26254;DHT22;53339;51.378;0.094;2022-11-04T09:21:35;7.30;93.70
26254;DHT22;53339;51.378;0.094;2022-11-04T09:24:03;7.40;93.70
26254;DHT22;53339;51.378;0.094;2022-11-04T09:26:31;7.40;93.70
26254;DHT22;53339;51.378;0.094;2022-11-04T09:28:59;7.50;93.70
26254;DHT22;53339;51.378;0.094;2022-11-04T09:31:28;7.50;93.70
26254;DHT22;53339;51.378;0.094;2022-11-04T09:33:56;7.60;93.70
26254;DHT22;53339;51.378;0.094;2022-11-04T09:36:24;7.60;93.70
26254;DHT22;53339;51.378;0.094;2022-11-04T09:38:52;7.70;93.70
26254;DHT22;53339;51.378;0.094;2022-11-04T09:41:29;7.70;93.70
26254;DHT22;53339;51.378;0.094;2022-11-04T09:46:37;7.70;93.60
26254;DHT22;53339;51.378;0.094;2022-11-04T09:49:09;7.80;93.60
26254;DHT22;53339;51.378;0.094;2022-11-04T09:51:38;7.80;93.60
26254;DHT22;53339;51.378;0.094;2022-11-04T09:54:37;7.90;93.60
26254;DHT22;53339;51.378;0.094;2022-11-04T09:57:16;7.90;93.60
26254;DHT22;53339;51.378;0.094;2022-11-04T09:59:44;7.90;93.60
26254;DHT22;53339;51.378;0.094;2022-11-04T10:02:39;8.00;93.70
26254;DHT22;53339;51.378;0.094;2022-11-04T10:11:23;8.20;93.60
26254;DHT22;53339;51.378;0.094;2022-11-04T10:14:16;8.30;93.70
26254;DHT22;53339;51.378;0.094;2022-11-04T10:17:13;8.30;93.60
26254;DHT22;53339;51.378;0.094;2022-11-04T10:25:14;8.50;93.60
26254;DHT22;53339;51.378;0.094;2022-11-04T10:27:44;8.50;93.60
26254;DHT22;53339;51.378;0.094;2022-11-04T10:30:21;8.50;93.60
26254;DHT22;53339;51.378;0.094;2022-11-04T10:33:13;8.60;93.70
26254;DHT22;53339;51.378;0.094;2022-11-04T10:35:52;8.70;93.70
26254;DHT22;53339;51.378;0.094;2022-11-04T10:40:59;8.70;93.60
26254;DHT22;53339;51.378;0.094;2022-11-04T10:43:37;8.70;93.60
26254;DHT22;53339;51.378;0.094;2022-11-04T10:51:31;8.80;93.60
26254;DHT22;53339;51.378;0.094;2022-11-04T10:54:01;8.90;93.60
26254;DHT22;53339;51.378;0.094;2022-11-04T10:56:55;8.90;93.60
26254;DHT22;53339;51.378;0.094;2022-11-04T10:59:27;8.90;93.70
26254;DHT22;53339;51.378;0.094;2022-11-04T11:01:58;9.00;93.60
26254;DHT22;53339;51.378;0.094;2022-11-04T11:04:35;9.10;93.70
26254;DHT22;53339;51.378;0.094;2022-11-04T11:07:08;9.20;93.70
26254;DHT22;53339;51.378;0.094;2022-11-04T11:09:47;9.20;93.70
26254;DHT22;53339;51.378;0.094;2022-11-04T11:12:24;9.20;93.70
26254;DHT22;53339;51.378;0.094;2022-11-04T11:15:26;9.30;93.70
26254;DHT22;53339;51.378;0.094;2022-11-04T11:18:00;9.30;93.60
26254;DHT22;53339;51.378;0.094;2022-11-04T11:20:29;9.30;93.60
26254;DHT22;53339;51.378;0.094;2022-11-04T11:22:59;9.30;93.50
26254;DHT22;53339;51.378;0.094;2022-11-04T11:25:32;9.40;93.50
26254;DHT22;53339;51.378;0.094;2022-11-04T11:30:33;9.50;93.60
26254;DHT22;53339;51.378;0.094;2022-11-04T11:33:06;9.60;93.70
26254;DHT22;53339;51.378;0.094;2022-11-04T11:35:49;9.60;93.60
26254;DHT22;53339;51.378;0.094;2022-11-04T11:38:26;9.70;93.60
26254;DHT22;53339;51.378;0.094;2022-11-04T11:41:13;9.80;93.60
26254;DHT22;53339;51.378;0.094;2022-11-04T11:43:53;9.80;93.50
26254;DHT22;53339;51.378;0.094;2022-11-04T11:46:29;9.70;93.20
26254;DHT22;53339;51.378;0.094;2022-11-04T11:48:59;9.70;93.20
26254;DHT22;53339;51.378;0.094;2022-11-04T11:51:34;9.70;93.20
26254;DHT22;53339;51.378;0.094;2022-11-04T11:54:34;9.70;93.10
26254;DHT22;53339;51.378;0.094;2022-11-04T11:57:30;9.70;93.00
26254;DHT22;53339;51.378;0.094;2022-11-04T12:00:09;9.80;92.90
26254;DHT22;53339;51.378;0.094;2022-11-04T12:03:27;9.90;92.80
26254;DHT22;53339;51.378;0.094;2022-11-04T12:06:36;9.80;92.60
26254;DHT22;53339;51.378;0.094;2022-11-04T12:15:15;9.80;93.00
26254;DHT22;53339;51.378;0.094;2022-11-04T12:18:19;9.90;93.00
26254;DHT22;53339;51.378;0.094;2022-11-04T12:21:27;10.00;93.20
26254;DHT22;53339;51.378;0.094;2022-11-04T12:24:18;10.10;93.20
26254;DHT22;53339;51.378;0.094;2022-11-04T12:32:33;10.20;92.50
26254;DHT22;53339;51.378;0.094;2022-11-04T12:40:30;10.30;92.30
26254;DHT22;53339;51.378;0.094;2022-11-04T12:51:18;10.50;91.90
26254;DHT22;53339;51.378;0.094;2022-11-04T13:00:08;10.70;91.50
26254;DHT22;53339;51.378;0.094;2022-11-04T13:02:46;10.70;90.90
26254;DHT22;53339;51.378;0.094;2022-11-04T13:05:42;10.80;90.80
26254;DHT22;53339;51.378;0.094;2022-11-04T13:08:21;10.80;91.10
26254;DHT22;53339;51.378;0.094;2022-11-04T13:10:58;10.80;90.80
26254;DHT22;53339;51.378;0.094;2022-11-04T13:13:35;10.90;90.80
26254;DHT22;53339;51.378;0.094;2022-11-04T13:16:08;10.90;90.50
26254;DHT22;53339;51.378;0.094;2022-11-04T13:18:39;10.90;90.40
26254;DHT22;53339;51.378;0.094;2022-11-04T13:21:12;11.00;90.60
26254;DHT22;53339;51.378;0.094;2022-11-04T13:26:27;11.10;90.00
26254;DHT22;53339;51.378;0.094;2022-11-04T13:29:00;11.10;89.90
26254;DHT22;53339;51.378;0.094;2022-11-04T13:31:42;11.10;90.40
26254;DHT22;53339;51.378;0.094;2022-11-04T13:37:19;11.10;89.60
26254;DHT22;53339;51.378;0.094;2022-11-04T13:39:53;11.10;90.00
26254;DHT22;53339;51.378;0.094;2022-11-04T13:45:16;11.20;88.30
26254;DHT22;53339;51.378;0.094;2022-11-04T13:47:50;11.20;89.90
26254;DHT22;53339;51.378;0.094;2022-11-04T13:50:38;11.20;90.60
26254;DHT22;53339;51.378;0.094;2022-11-04T13:53:08;11.20;90.10
26254;DHT22;53339;51.378;0.094;2022-11-04T13:55:49;11.20;89.40
26254;DHT22;53339;51.378;0.094;2022-11-04T13:58:24;11.20;89.10
26254;DHT22;53339;51.378;0.094;2022-11-04T14:01:32;11.20;89.30
26254;DHT22;53339;51.378;0.094;2022-11-04T14:04:05;11.30;89.50
26254;DHT22;53339;51.378;0.094;2022-11-04T14:06:59;11.30;88.90
26254;DHT22;53339;51.378;0.094;2022-11-04T14:14:41;11.40;90.30
26254;DHT22;53339;51.378;0.094;2022-11-04T14:22:32;11.50;90.50
26254;DHT22;53339;51.378;0.094;2022-11-04T14:25:03;11.60;89.10
26254;DHT22;53339;51.378;0.094;2022-11-04T14:27:47;11.60;89.70
26254;DHT22;53339;51.378;0.094;2022-11-04T14:30:28;11.60;89.00
26254;DHT22;53339;51.378;0.094;2022-11-04T14:33:00;11.60;89.80
26254;DHT22;53339;51.378;0.094;2022-11-04T14:35:29;11.70;89.70
26254;DHT22;53339;51.378;0.094;2022-11-04T14:38:04;11.70;90.50
26254;DHT22;53339;51.378;0.094;2022-11-04T14:40:47;11.70;90.60
26254;DHT22;53339;51.378;0.094;2022-11-04T14:43:30;11.70;90.20
26254;DHT22;53339;51.378;0.094;2022-11-04T14:46:00;11.70;89.80
26254;DHT22;53339;51.378;0.094;2022-11-04T14:48:28;11.60;89.30
26254;DHT22;53339;51.378;0.094;2022-11-04T14:50:56;11.60;88.90
26254;DHT22;53339;51.378;0.094;2022-11-04T14:53:29;11.60;88.90
26254;DHT22;53339;51.378;0.094;2022-11-04T14:56:14;11.50;89.00
26254;DHT22;53339;51.378;0.094;2022-11-04T14:59:01;11.60;89.40
26254;DHT22;53339;51.378;0.094;2022-11-04T15:01:32;11.60;89.30
26254;DHT22;53339;51.378;0.094;2022-11-04T15:07:21;11.60;89.60
26254;DHT22;53339;51.378;0.094;2022-11-04T15:09:49;11.70;90.10
26254;DHT22;53339;51.378;0.094;2022-11-04T15:12:18;11.60;89.50
26254;DHT22;53339;51.378;0.094;2022-11-04T15:15:31;11.50;89.10
26254;DHT22;53339;51.378;0.094;2022-11-04T15:18:06;11.20;88.70
26254;DHT22;53339;51.378;0.094;2022-11-04T15:20:45;11.10;89.20
26254;DHT22;53339;51.378;0.094;2022-11-04T15:23:16;11.00;88.50
26254;DHT22;53339;51.378;0.094;2022-11-04T15:25:47;10.90;88.00
26254;DHT22;53339;51.378;0.094;2022-11-04T15:28:23;10.80;88.80
26254;DHT22;53339;51.378;0.094;2022-11-04T15:31:28;10.90;89.20
26254;DHT22;53339;51.378;0.094;2022-11-04T15:33:58;10.90;88.20
26254;DHT22;53339;51.378;0.094;2022-11-04T15:36:30;10.90;86.90
26254;DHT22;53339;51.378;0.094;2022-11-04T15:41:38;11.10;87.40
26254;DHT22;53339;51.378;0.094;2022-11-04T15:44:27;11.20;86.90
26254;DHT22;53339;51.378;0.094;2022-11-04T15:46:57;11.40;86.10
26254;DHT22;53339;51.378;0.094;2022-11-04T15:49:30;11.40;86.10
26254;DHT22;53339;51.378;0.094;2022-11-04T15:52:06;11.40;86.50
26254;DHT22;53339;51.378;0.094;2022-11-04T15:54:35;11.20;86.80
26254;DHT22;53339;51.378;0.094;2022-11-04T15:57:16;11.00;87.10
26254;DHT22;53339;51.378;0.094;2022-11-04T15:59:56;10.90;88.10
26254;DHT22;53339;51.378;0.094;2022-11-04T16:02:31;10.80;88.40
26254;DHT22;53339;51.378;0.094;2022-11-04T16:07:37;10.50;88.60
26254;DHT22;53339;51.378;0.094;2022-11-04T16:12:59;10.40;89.40
26254;DHT22;53339;51.378;0.094;2022-11-04T16:21:04;10.30;89.80
26254;DHT22;53339;51.378;0.094;2022-11-04T16:23:42;10.20;90.00
26254;DHT22;53339;51.378;0.094;2022-11-04T16:26:11;10.20;89.90
26254;DHT22;53339;51.378;0.094;2022-11-04T16:28:40;10.10;89.70
26254;DHT22;53339;51.378;0.094;2022-11-04T16:33:49;9.90;90.10
26254;DHT22;53339;51.378;0.094;2022-11-04T16:36:17;9.80;89.80
26254;DHT22;53339;51.378;0.094;2022-11-04T16:38:58;9.70;90.10
26254;DHT22;53339;51.378;0.094;2022-11-04T16:41:27;9.70;90.40
26254;DHT22;53339;51.378;0.094;2022-11-04T16:43:55;9.60;90.70
26254;DHT22;53339;51.378;0.094;2022-11-04T16:46:23;9.60;90.40
26254;DHT22;53339;51.378;0.094;2022-11-04T16:48:51;9.50;90.60
26254;DHT22;53339;51.378;0.094;2022-11-04T16:51:22;9.50;90.90
26254;DHT22;53339;51.378;0.094;2022-11-04T16:53:51;9.50;90.70
26254;DHT22;53339;51.378;0.094;2022-11-04T16:56:23;9.60;90.30
26254;DHT22;53339;51.378;0.094;2022-11-04T16:58:52;9.60;90.70
26254;DHT22;53339;51.378;0.094;2022-11-04T17:01:19;9.60;90.70
26254;DHT22;53339;51.378;0.094;2022-11-04T17:03:47;9.70;90.60
26254;DHT22;53339;51.378;0.094;2022-11-04T17:06:16;9.70;90.20
26254;DHT22;53339;51.378;0.094;2022-11-04T17:08:43;9.70;90.70
26254;DHT22;53339;51.378;0.094;2022-11-04T17:11:11;9.70;90.90
26254;DHT22;53339;51.378;0.094;2022-11-04T17:13:39;9.70;90.80
26254;DHT22;53339;51.378;0.094;2022-11-04T17:16:10;9.70;90.40
26254;DHT22;53339;51.378;0.094;2022-11-04T17:18:39;9.70;90.60
26254;DHT22;53339;51.378;0.094;2022-11-04T17:21:10;9.70;90.70
26254;DHT22;53339;51.378;0.094;2022-11-04T17:23:39;9.70;90.80
26254;DHT22;53339;51.378;0.094;2022-11-04T17:26:10;9.80;90.30
26254;DHT22;53339;51.378;0.094;2022-11-04T17:28:37;9.80;90.70
26254;DHT22;53339;51.378;0.094;2022-11-04T17:31:05;9.80;90.80
26254;DHT22;53339;51.378;0.094;2022-11-04T17:33:34;9.80;90.90
26254;DHT22;53339;51.378;0.094;2022-11-04T17:36:01;9.80;90.40
26254;DHT22;53339;51.378;0.094;2022-11-04T17:38:33;9.80;90.70
26254;DHT22;53339;51.378;0.094;2022-11-04T17:41:01;9.90;90.90
26254;DHT22;53339;51.378;0.094;2022-11-04T17:43:47;9.80;90.80
26254;DHT22;53339;51.378;0.094;2022-11-04T17:46:27;9.90;90.40
26254;DHT22;53339;51.378;0.094;2022-11-04T17:51:33;9.90;90.80
26254;DHT22;53339;51.378;0.094;2022-11-04T17:54:02;9.90;90.90
26254;DHT22;53339;51.378;0.094;2022-11-04T17:56:30;9.90;90.30
26254;DHT22;53339;51.378;0.094;2022-11-04T17:58:59;9.80;90.70
26254;DHT22;53339;51.378;0.094;2022-11-04T18:01:34;9.80;90.90
26254;DHT22;53339;51.378;0.094;2022-11-04T18:04:02;9.70;90.90
26254;DHT22;53339;51.378;0.094;2022-11-04T18:06:31;9.60;90.60
26254;DHT22;53339;51.378;0.094;2022-11-04T18:09:00;9.60;90.90
26254;DHT22;53339;51.378;0.094;2022-11-04T18:11:28;9.50;91.10
26254;DHT22;53339;51.378;0.094;2022-11-04T18:14:15;9.40;91.20
26254;DHT22;53339;51.378;0.094;2022-11-04T18:16:46;9.40;90.90
26254;DHT22;53339;51.378;0.094;2022-11-04T18:19:14;9.20;91.10
26254;DHT22;53339;51.378;0.094;2022-11-04T18:21:42;9.20;91.30
26254;DHT22;53339;51.378;0.094;2022-11-04T18:24:10;9.10;91.40
26254;DHT22;53339;51.378;0.094;2022-11-04T18:26:38;9.10;91.30
26254;DHT22;53339;51.378;0.094;2022-11-04T18:29:05;9.00;91.40
26254;DHT22;53339;51.378;0.094;2022-11-04T18:31:35;9.00;91.60
26254;DHT22;53339;51.378;0.094;2022-11-04T18:34:06;8.90;91.60
26254;DHT22;53339;51.378;0.094;2022-11-04T18:36:35;8.90;91.50
26254;DHT22;53339;51.378;0.094;2022-11-04T18:39:08;8.80;91.50
26254;DHT22;53339;51.378;0.094;2022-11-04T18:41:36;8.80;91.60
26254;DHT22;53339;51.378;0.094;2022-11-04T18:44:06;8.80;91.70